sensor_id;sensor_type;location;lat;lon;timestamp;pressure;altitude;pressure_sealevel;temperature;humidity
57068;BME280;43391;47.448;18.904;2023-11-19T00:04:45;100233.34;;;1.06;100.00
57068;BME280;43391;47.448;18.904;2023-11-19T00:13:05;100244.47;;;0.93;100.00
57068;BME280;43391;47.448;18.904;2023-11-19T00:21:26;100244.47;;;0.85;100.00
57068;BME280;43391;47.448;18.904;2023-11-19T00:29:50;100252.97;;;0.83;100.00
57068;BME280;43391;47.448;18.904;2023-11-19T00:38:10;100248.72;;;0.71;100.00
57068;BME280;43391;47.448;18.904;2023-11-19T00:46:30;100230.81;;;0.64;100.00
57068;BME280;43391;47.448;18.904;2023-11-19T00:54:52;100227.38;;;0.48;100.00
57068;BME280;43391;47.448;18.904;2023-11-19T01:03:13;100235.00;;;0.26;100.00
57068;BME280;43391;47.448;18.904;2023-11-19T01:11:35;100239.28;;;0.32;100.00
57068;BME280;43391;47.448;18.904;2023-11-19T01:19:55;100235.88;;;0.25;100.00
57068;BME280;43391;47.448;18.904;2023-11-19T01:28:15;100224.78;;;0.20;100.00
57068;BME280;43391;47.448;18.904;2023-11-19T01:36:35;100227.34;;;0.19;100.00
57068;BME280;43391;47.448;18.904;2023-11-19T01:44:59;100221.34;;;0.10;100.00
57068;BME280;43391;47.448;18.904;2023-11-19T01:53:19;100195.81;;;0.07;100.00
57068;BME280;43391;47.448;18.904;2023-11-19T02:01:40;100188.16;;;-0.01;100.00
57068;BME280;43391;47.448;18.904;2023-11-19T02:10:00;100172.78;;;-0.22;100.00
57068;BME280;43391;47.448;18.904;2023-11-19T02:18:22;100179.53;;;-0.32;100.00
57068;BME280;43391;47.448;18.904;2023-11-19T02:27:25;100159.09;;;-0.38;100.00
57068;BME280;43391;47.448;18.904;2023-11-19T02:35:25;100176.91;;;-0.52;100.00
57068;BME280;43391;47.448;18.904;2023-11-19T02:43:46;100153.91;;;-0.67;100.00
57068;BME280;43391;47.448;18.904;2023-11-19T02:52:08;100147.91;;;-0.73;100.00
57068;BME280;43391;47.448;18.904;2023-11-19T03:00:30;100141.13;;;-0.68;100.00
57068;BME280;43391;47.448;18.904;2023-11-19T03:08:55;100128.41;;;-0.65;100.00
57068;BME280;43391;47.448;18.904;2023-11-19T03:17:15;100114.78;;;-0.72;100.00
57068;BME280;43391;47.448;18.904;2023-11-19T03:25:36;100119.88;;;-0.72;100.00
57068;BME280;43391;47.448;18.904;2023-11-19T03:33:57;100124.09;;;-0.78;100.00
57068;BME280;43391;47.448;18.904;2023-11-19T03:42:19;100096.91;;;-0.73;100.00
57068;BME280;43391;47.448;18.904;2023-11-19T03:50:39;100076.47;;;-0.81;100.00
57068;BME280;43391;47.448;18.904;2023-11-19T03:58:59;100073.09;;;-0.82;100.00
57068;BME280;43391;47.448;18.904;2023-11-19T04:07:19;100057.78;;;-0.83;100.00
57068;BME280;43391;47.448;18.904;2023-11-19T04:15:40;100048.41;;;-0.95;100.00
57068;BME280;43391;47.448;18.904;2023-11-19T04:24:00;100047.53;;;-0.99;100.00
57068;BME280;43391;47.448;18.904;2023-11-19T04:32:20;100029.72;;;-0.91;100.00
57068;BME280;43391;47.448;18.904;2023-11-19T04:40:41;100042.38;;;-1.14;100.00
57068;BME280;43391;47.448;18.904;2023-11-19T04:49:01;100063.69;;;-1.00;100.00
57068;BME280;43391;47.448;18.904;2023-11-19T04:57:22;100080.56;;;-1.17;100.00
57068;BME280;43391;47.448;18.904;2023-11-19T05:05:42;100042.38;;;-1.13;100.00
57068;BME280;43391;47.448;18.904;2023-11-19T05:14:03;100063.59;;;-1.12;100.00
57068;BME280;43391;47.448;18.904;2023-11-19T05:22:25;100056.88;;;-0.99;100.00
57068;BME280;43391;47.448;18.904;2023-11-19T05:30:46;100056.13;;;-0.70;100.00
57068;BME280;43391;47.448;18.904;2023-11-19T05:39:06;100040.00;;;-0.63;100.00
57068;BME280;43391;47.448;18.904;2023-11-19T05:47:26;100040.03;;;-0.55;100.00
57068;BME280;43391;47.448;18.904;2023-11-19T05:55:46;100047.69;;;-0.47;100.00
57068;BME280;43391;47.448;18.904;2023-11-19T06:04:08;100050.25;;;-0.47;100.00
57068;BME280;43391;47.448;18.904;2023-11-19T06:12:29;100026.44;;;-0.45;100.00
57068;BME280;43391;47.448;18.904;2023-11-19T06:20:49;100028.13;;;-0.44;100.00
57068;BME280;43391;47.448;18.904;2023-11-19T06:29:09;100012.00;;;-0.27;100.00
57068;BME280;43391;47.448;18.904;2023-11-19T06:37:30;100005.19;;;-0.33;100.00
57068;BME280;43391;47.448;18.904;2023-11-19T06:45:50;100015.41;;;-0.11;100.00
57068;BME280;43391;47.448;18.904;2023-11-19T06:54:10;100007.75;;;-0.03;100.00
57068;BME280;43391;47.448;18.904;2023-11-19T07:02:30;99994.09;;;0.29;100.00
57068;BME280;43391;47.448;18.904;2023-11-19T07:10:51;99999.16;;;0.54;100.00
57068;BME280;43391;47.448;18.904;2023-11-19T07:19:11;99985.53;;;0.55;100.00
57068;BME280;43391;47.448;18.904;2023-11-19T07:27:31;100000.81;;;0.72;100.00
57068;BME280;43391;47.448;18.904;2023-11-19T07:35:51;99991.25;;;1.16;100.00
57068;BME280;43391;47.448;18.904;2023-11-19T07:44:11;100013.44;;;1.11;100.00
57068;BME280;43391;47.448;18.904;2023-11-19T07:52:32;100017.69;;;1.14;100.00
57068;BME280;43391;47.448;18.904;2023-11-19T08:00:52;100009.94;;;1.26;100.00
57068;BME280;43391;47.448;18.904;2023-11-19T08:09:12;99997.97;;;1.28;100.00
57068;BME280;43391;47.448;18.904;2023-11-19T08:17:33;99959.50;;;1.44;100.00
57068;BME280;43391;47.448;18.904;2023-11-19T08:25:53;99934.69;;;1.57;100.00
57068;BME280;43391;47.448;18.904;2023-11-19T08:34:14;99960.16;;;1.72;100.00
57068;BME280;43391;47.448;18.904;2023-11-19T08:42:35;99938.75;;;1.81;100.00
57068;BME280;43391;47.448;18.904;2023-11-19T08:50:56;99918.19;;;1.89;100.00
57068;BME280;43391;47.448;18.904;2023-11-19T08:59:16;99926.50;;;2.15;100.00
57068;BME280;43391;47.448;18.904;2023-11-19T09:07:37;99939.09;;;2.32;100.00
57068;BME280;43391;47.448;18.904;2023-11-19T09:15:58;99959.66;;;2.30;100.00
57068;BME280;43391;47.448;18.904;2023-11-19T09:24:23;99952.78;;;2.32;100.00
57068;BME280;43391;47.448;18.904;2023-11-19T09:32:43;99953.66;;;2.28;100.00
57068;BME280;43391;47.448;18.904;2023-11-19T09:41:04;99927.78;;;2.53;100.00
57068;BME280;43391;47.448;18.904;2023-11-19T09:49:28;99911.28;;;2.74;100.00
57068;BME280;43391;47.448;18.904;2023-11-19T09:57:48;99907.06;;;2.72;100.00
57068;BME280;43391;47.448;18.904;2023-11-19T10:06:09;99894.94;;;2.82;100.00
57068;BME280;43391;47.448;18.904;2023-11-19T10:14:30;99876.88;;;2.91;100.00
57068;BME280;43391;47.448;18.904;2023-11-19T10:22:54;99868.00;;;3.11;100.00
57068;BME280;43391;47.448;18.904;2023-11-19T10:31:15;99842.34;;;3.12;100.00
57068;BME280;43391;47.448;18.904;2023-11-19T10:39:51;99845.56;;;3.24;100.00
57068;BME280;43391;47.448;18.904;2023-11-19T10:48:14;99854.81;;;3.34;100.00
57068;BME280;43391;47.448;18.904;2023-11-19T10:56:34;99832.41;;;3.45;100.00
57068;BME280;43391;47.448;18.904;2023-11-19T11:04:55;99818.19;;;3.27;100.00
57068;BME280;43391;47.448;18.904;2023-11-19T11:13:16;99793.59;;;3.14;100.00
57068;BME280;43391;47.448;18.904;2023-11-19T11:21:37;99775.25;;;3.36;100.00
57068;BME280;43391;47.448;18.904;2023-11-19T11:30:04;99780.31;;;3.40;100.00
57068;BME280;43391;47.448;18.904;2023-11-19T11:38:28;99796.91;;;3.21;100.00
57068;BME280;43391;47.448;18.904;2023-11-19T11:46:54;99764.59;;;3.10;100.00
57068;BME280;43391;47.448;18.904;2023-11-19T11:55:15;99756.00;;;3.11;100.00
57068;BME280;43391;47.448;18.904;2023-11-19T12:03:37;99744.00;;;3.13;100.00
57068;BME280;43391;47.448;18.904;2023-11-19T12:12:39;99726.00;;;3.16;100.00
57068;BME280;43391;47.448;18.904;2023-11-19T12:20:40;99695.91;;;3.25;100.00
57068;BME280;43391;47.448;18.904;2023-11-19T12:29:01;99701.63;;;3.39;100.00
57068;BME280;43391;47.448;18.904;2023-11-19T12:37:21;99672.44;;;3.45;100.00
57068;BME280;43391;47.448;18.904;2023-11-19T12:45:41;99660.34;;;3.50;100.00
57068;BME280;43391;47.448;18.904;2023-11-19T12:54:01;99636.34;;;3.53;100.00
57068;BME280;43391;47.448;18.904;2023-11-19T13:02:21;99645.38;;;3.71;100.00
57068;BME280;43391;47.448;18.904;2023-11-19T13:19:08;99645.19;;;3.80;100.00
57068;BME280;43391;47.448;18.904;2023-11-19T13:27:29;99644.19;;;3.86;100.00
57068;BME280;43391;47.448;18.904;2023-11-19T13:35:50;99629.50;;;3.93;100.00
57068;BME280;43391;47.448;18.904;2023-11-19T13:44:10;99634.53;;;3.97;100.00
57068;BME280;43391;47.448;18.904;2023-11-19T13:52:30;99630.03;;;4.07;100.00
57068;BME280;43391;47.448;18.904;2023-11-19T14:00:50;99621.56;;;4.04;100.00
57068;BME280;43391;47.448;18.904;2023-11-19T14:09:11;99622.31;;;4.07;100.00
57068;BME280;43391;47.448;18.904;2023-11-19T14:17:31;99623.44;;;3.95;100.00
57068;BME280;43391;47.448;18.904;2023-11-19T14:25:51;99620.72;;;4.39;100.00
57068;BME280;43391;47.448;18.904;2023-11-19T14:34:11;99615.44;;;4.44;100.00
57068;BME280;43391;47.448;18.904;2023-11-19T14:42:31;99619.75;;;4.44;100.00
57068;BME280;43391;47.448;18.904;2023-11-19T14:50:52;99620.69;;;4.41;100.00
57068;BME280;43391;47.448;18.904;2023-11-19T14:59:12;99630.25;;;4.34;100.00
57068;BME280;43391;47.448;18.904;2023-11-19T15:07:32;99626.56;;;4.46;100.00
57068;BME280;43391;47.448;18.904;2023-11-19T15:15:52;99630.19;;;4.72;100.00
57068;BME280;43391;47.448;18.904;2023-11-19T15:24:12;99609.16;;;4.56;100.00
57068;BME280;43391;47.448;18.904;2023-11-19T15:32:33;99633.00;;;4.63;100.00
57068;BME280;43391;47.448;18.904;2023-11-19T15:40:53;99609.25;;;3.80;100.00
57068;BME280;43391;47.448;18.904;2023-11-19T15:49:14;99605.41;;;3.59;100.00
57068;BME280;43391;47.448;18.904;2023-11-19T15:57:34;99613.94;;;3.61;100.00
57068;BME280;43391;47.448;18.904;2023-11-19T16:05:55;99614.75;;;3.63;100.00
57068;BME280;43391;47.448;18.904;2023-11-19T16:14:15;99600.22;;;4.00;100.00
57068;BME280;43391;47.448;18.904;2023-11-19T16:22:37;99575.78;;;3.83;100.00
57068;BME280;43391;47.448;18.904;2023-11-19T16:30:57;99559.97;;;3.63;100.00
57068;BME280;43391;47.448;18.904;2023-11-19T16:39:18;99558.63;;;3.46;100.00
57068;BME280;43391;47.448;18.904;2023-11-19T16:47:38;99572.50;;;3.37;100.00
57068;BME280;43391;47.448;18.904;2023-11-19T16:55:58;99576.03;;;3.72;100.00
57068;BME280;43391;47.448;18.904;2023-11-19T17:04:18;99570.41;;;3.55;100.00
57068;BME280;43391;47.448;18.904;2023-11-19T17:12:38;99569.81;;;3.42;100.00
57068;BME280;43391;47.448;18.904;2023-11-19T17:20:59;99580.03;;;3.45;100.00
57068;BME280;43391;47.448;18.904;2023-11-19T17:29:20;99571.81;;;3.70;100.00
57068;BME280;43391;47.448;18.904;2023-11-19T17:37:41;99554.47;;;3.80;100.00
57068;BME280;43391;47.448;18.904;2023-11-19T17:46:02;99537.53;;;4.09;100.00
57068;BME280;43391;47.448;18.904;2023-11-19T17:54:25;99547.97;;;4.01;100.00
57068;BME280;43391;47.448;18.904;2023-11-19T18:02:46;99526.41;;;4.07;100.00
57068;BME280;43391;47.448;18.904;2023-11-19T18:11:07;99507.47;;;4.12;100.00
57068;BME280;43391;47.448;18.904;2023-11-19T18:19:30;99517.81;;;3.73;100.00
57068;BME280;43391;47.448;18.904;2023-11-19T18:27:50;99499.22;;;3.63;100.00
57068;BME280;43391;47.448;18.904;2023-11-19T18:36:11;99517.38;;;3.54;100.00
57068;BME280;43391;47.448;18.904;2023-11-19T18:44:32;99518.28;;;3.53;100.00
57068;BME280;43391;47.448;18.904;2023-11-19T18:52:54;99519.06;;;3.55;100.00
57068;BME280;43391;47.448;18.904;2023-11-19T19:01:15;99532.72;;;3.57;100.00
57068;BME280;43391;47.448;18.904;2023-11-19T19:09:37;99524.25;;;3.53;100.00
57068;BME280;43391;47.448;18.904;2023-11-19T19:17:58;99484.06;;;3.52;100.00
57068;BME280;43391;47.448;18.904;2023-11-19T19:26:19;99505.41;;;3.54;100.00
57068;BME280;43391;47.448;18.904;2023-11-19T19:34:40;99470.97;;;3.63;100.00
57068;BME280;43391;47.448;18.904;2023-11-19T19:43:00;99460.09;;;3.53;100.00
57068;BME280;43391;47.448;18.904;2023-11-19T19:51:23;99427.59;;;3.52;100.00
57068;BME280;43391;47.448;18.904;2023-11-19T19:59:43;99462.03;;;3.42;100.00
57068;BME280;43391;47.448;18.904;2023-11-19T20:08:04;99458.53;;;3.46;100.00
57068;BME280;43391;47.448;18.904;2023-11-19T20:16:26;99461.78;;;3.54;100.00
57068;BME280;43391;47.448;18.904;2023-11-19T20:24:46;99472.97;;;3.52;100.00
57068;BME280;43391;47.448;18.904;2023-11-19T20:33:06;99487.41;;;3.56;100.00
57068;BME280;43391;47.448;18.904;2023-11-19T20:41:26;99467.00;;;3.50;100.00
57068;BME280;43391;47.448;18.904;2023-11-19T20:49:48;99471.38;;;3.46;100.00
57068;BME280;43391;47.448;18.904;2023-11-19T20:58:08;99490.97;;;3.50;100.00
57068;BME280;43391;47.448;18.904;2023-11-19T21:06:31;99501.91;;;3.58;100.00
57068;BME280;43391;47.448;18.904;2023-11-19T21:14:52;99487.88;;;3.72;100.00
57068;BME280;43391;47.448;18.904;2023-11-19T21:23:12;99469.16;;;3.68;100.00
57068;BME280;43391;47.448;18.904;2023-11-19T21:31:33;99498.34;;;3.64;100.00
57068;BME280;43391;47.448;18.904;2023-11-19T21:39:55;99459.94;;;3.59;100.00
57068;BME280;43391;47.448;18.904;2023-11-19T21:48:15;99486.41;;;3.62;100.00
57068;BME280;43391;47.448;18.904;2023-11-19T21:56:35;99486.13;;;3.74;100.00
57068;BME280;43391;47.448;18.904;2023-11-19T22:04:55;99484.50;;;3.71;100.00
57068;BME280;43391;47.448;18.904;2023-11-19T22:13:16;99464.88;;;3.69;100.00
57068;BME280;43391;47.448;18.904;2023-11-19T22:21:36;99441.34;;;3.84;100.00
57068;BME280;43391;47.448;18.904;2023-11-19T22:29:56;99408.59;;;3.23;100.00
57068;BME280;43391;47.448;18.904;2023-11-19T22:38:17;99438.38;;;2.92;100.00
57068;BME280;43391;47.448;18.904;2023-11-19T22:46:37;99424.75;;;2.89;100.00
57068;BME280;43391;47.448;18.904;2023-11-19T22:54:58;99405.97;;;2.88;100.00
57068;BME280;43391;47.448;18.904;2023-11-19T23:03:18;99425.53;;;2.92;100.00
57068;BME280;43391;47.448;18.904;2023-11-19T23:11:38;99440.38;;;2.78;100.00
57068;BME280;43391;47.448;18.904;2023-11-19T23:19:58;99443.84;;;2.75;100.00
57068;BME280;43391;47.448;18.904;2023-11-19T23:28:18;99451.59;;;2.71;100.00
57068;BME280;43391;47.448;18.904;2023-11-19T23:36:39;99448.50;;;2.56;100.00
57068;BME280;43391;47.448;18.904;2023-11-19T23:44:59;99436.06;;;2.78;100.00
57068;BME280;43391;47.448;18.904;2023-11-19T23:53:19;99407.94;;;2.77;100.00
